Time;durP1;ratioP1;P1;durP2;ratioP2;P2;SDS_P1;SDS_P2;PMS_P1;PMS_P2;Temp;Humidity;BMP_temperature;BMP_pressure;BME280_temperature;BME280_humidity;BME280_pressure;Samples;Min_cycle;Max_cycle;Signal;HPM_P1;HPM_P2
2021/07/01 00:02:07;;;;;;;43.30;15.97;;;14.00;99.90;;;;;;4383819;32;20223;-64
2021/07/01 00:04:34;;;;;;;43.57;15.10;;;13.90;99.90;;;;;;4379362;32;20282;-64
2021/07/01 00:07:01;;;;;;;30.53;14.17;;;13.80;99.90;;;;;;4389023;32;20840;-64
2021/07/01 00:09:28;;;;;;;30.20;13.37;;;13.90;99.90;;;;;;4376920;32;20566;-63
2021/07/01 00:11:57;;;;;;;33.07;14.27;;;13.90;99.90;;;;;;4381444;32;20570;-65
2021/07/01 00:14:25;;;;;;;28.10;13.03;;;13.80;99.90;;;;;;4376841;32;20221;-64
2021/07/01 00:16:54;;;;;;;36.57;14.87;;;13.80;99.90;;;;;;4379830;32;20171;-64
2021/07/01 00:19:21;;;;;;;30.37;14.03;;;13.80;99.90;;;;;;4391007;32;20148;-65
2021/07/01 00:21:48;;;;;;;39.57;15.13;;;13.80;99.90;;;;;;4381875;32;20199;-63
2021/07/01 00:24:15;;;;;;;38.47;14.17;;;13.70;99.90;;;;;;4389874;32;20160;-63
2021/07/01 00:26:42;;;;;;;28.70;13.50;;;13.70;99.90;;;;;;4377894;32;20164;-64
2021/07/01 00:29:10;;;;;;;28.73;13.07;;;13.70;99.90;;;;;;4380937;32;20209;-63
2021/07/01 00:31:38;;;;;;;27.23;12.33;;;13.80;99.90;;;;;;4382317;32;20452;-62
2021/07/01 00:34:05;;;;;;;20.97;10.50;;;13.70;99.90;;;;;;4376438;32;20184;-63
2021/07/01 00:36:32;;;;;;;26.90;11.83;;;13.50;99.90;;;;;;4385750;32;20215;-63
2021/07/01 00:38:59;;;;;;;25.23;12.40;;;13.50;99.90;;;;;;4385098;32;20207;-64
2021/07/01 00:41:26;;;;;;;23.80;10.80;;;13.40;99.90;;;;;;4388140;32;20152;-63
2021/07/01 00:43:53;;;;;;;37.03;12.47;;;13.40;99.90;;;;;;4390965;32;20183;-64
2021/07/01 00:46:22;;;;;;;36.17;12.27;;;13.40;99.90;;;;;;4390270;32;20152;-64
2021/07/01 00:48:51;;;;;;;22.13;11.40;;;13.40;99.90;;;;;;4380602;32;20160;-62
2021/07/01 00:51:18;;;;;;;32.63;13.27;;;13.40;99.90;;;;;;4380908;32;20152;-62
2021/07/01 00:53:45;;;;;;;32.63;12.83;;;13.40;99.90;;;;;;4388011;32;20152;-62
2021/07/01 00:56:14;;;;;;;34.23;14.10;;;13.40;99.90;;;;;;4391275;32;20153;-63
2021/07/01 00:58:41;;;;;;;31.23;14.27;;;13.40;99.90;;;;;;4384075;32;20185;-62
2021/07/01 01:01:08;;;;;;;26.43;12.10;;;13.40;99.90;;;;;;4391162;32;20183;-63
2021/07/01 01:03:37;;;;;;;43.13;14.80;;;13.40;99.90;;;;;;4385637;32;20148;-63
2021/07/01 01:06:08;;;;;;;25.87;12.90;;;13.50;99.90;;;;;;4380974;32;20152;-62
2021/07/01 01:08:35;;;;;;;35.20;15.33;;;13.50;99.90;;;;;;4376718;32;20560;-63
2021/07/01 01:11:05;;;;;;;35.43;13.57;;;13.60;99.90;;;;;;4383231;32;20153;-63
2021/07/01 01:13:32;;;;;;;32.10;13.00;;;13.60;99.90;;;;;;4382495;32;20155;-63
2021/07/01 01:16:01;;;;;;;32.87;14.27;;;13.60;99.90;;;;;;4378237;32;20625;-63
2021/07/01 01:18:30;;;;;;;30.27;13.37;;;13.60;99.90;;;;;;4388449;32;20463;-62
2021/07/01 01:21:00;;;;;;;32.40;13.90;;;13.60;99.90;;;;;;4390211;32;20156;-62
2021/07/01 01:23:32;;;;;;;34.30;13.93;;;13.60;99.90;;;;;;4387660;32;20202;-62
2021/07/01 01:26:00;;;;;;;24.47;13.63;;;13.60;99.90;;;;;;4379146;32;20194;-63
2021/07/01 01:28:27;;;;;;;28.77;13.77;;;13.60;99.90;;;;;;4387639;32;20497;-62
2021/07/01 01:30:54;;;;;;;24.53;14.20;;;13.70;99.90;;;;;;4389841;32;20333;-63
2021/07/01 01:33:21;;;;;;;39.30;15.23;;;13.70;99.90;;;;;;4383746;32;20152;-62
2021/07/01 01:35:48;;;;;;;44.30;15.67;;;13.60;99.90;;;;;;4382080;32;20158;-63
2021/07/01 01:38:17;;;;;;;34.40;14.73;;;13.60;99.90;;;;;;4383636;32;20174;-62
2021/07/01 01:40:48;;;;;;;40.53;16.10;;;13.70;99.90;;;;;;4377660;32;20148;-62
2021/07/01 01:43:16;;;;;;;44.77;16.00;;;13.60;99.90;;;;;;4387293;32;20150;-63
2021/07/01 01:45:43;;;;;;;34.20;12.67;;;13.60;99.90;;;;;;4383609;32;20160;-63
2021/07/01 01:48:12;;;;;;;35.47;14.20;;;13.60;99.90;;;;;;4382686;32;20231;-64
2021/07/01 01:50:41;;;;;;;30.73;13.23;;;13.60;99.90;;;;;;4386936;32;20157;-62
2021/07/01 01:53:08;;;;;;;43.57;15.00;;;13.60;99.90;;;;;;4382792;32;20174;-64
2021/07/01 01:55:35;;;;;;;24.67;12.93;;;13.70;99.90;;;;;;4383814;32;20573;-62
2021/07/01 01:58:04;;;;;;;39.40;14.50;;;13.70;99.90;;;;;;4383267;32;20194;-63
2021/07/01 02:00:31;;;;;;;31.07;13.20;;;13.60;99.90;;;;;;4383851;32;20535;-63
2021/07/01 02:02:59;;;;;;;28.80;13.57;;;13.60;99.90;;;;;;4383152;32;20190;-63
2021/07/01 02:05:28;;;;;;;26.47;13.03;;;13.60;99.90;;;;;;4385681;32;20202;-64
2021/07/01 02:07:55;;;;;;;28.43;12.40;;;13.60;99.90;;;;;;4384181;32;20600;-62
2021/07/01 02:10:26;;;;;;;27.60;11.77;;;13.70;99.90;;;;;;4389361;32;20159;-63
2021/07/01 02:12:54;;;;;;;22.33;11.03;;;13.60;99.90;;;;;;4384322;32;20670;-63
2021/07/01 02:15:24;;;;;;;24.47;11.53;;;13.70;99.90;;;;;;4389211;32;20227;-63
2021/07/01 02:17:51;;;;;;;26.10;11.57;;;13.60;99.90;;;;;;4383188;32;20190;-63
2021/07/01 02:20:22;;;;;;;33.47;11.33;;;13.60;99.90;;;;;;4389434;32;20159;-62
2021/07/01 02:22:50;;;;;;;21.97;10.77;;;13.60;99.90;;;;;;4376053;32;20225;-63
2021/07/01 02:25:18;;;;;;;21.43;10.47;;;13.60;99.90;;;;;;4383170;32;20153;-64
2021/07/01 02:27:45;;;;;;;39.40;13.83;;;13.60;99.90;;;;;;4382728;32;20163;-63
2021/07/01 02:30:14;;;;;;;21.40;9.80;;;13.70;99.90;;;;;;4389185;32;20172;-63
2021/07/01 02:32:44;;;;;;;25.80;10.73;;;13.70;99.90;;;;;;4382128;32;20152;-61
2021/07/01 02:35:12;;;;;;;32.43;11.63;;;13.70;99.90;;;;;;4332310;32;1689170;-62
2021/07/01 02:37:40;;;;;;;30.67;12.23;;;13.70;99.90;;;;;;4383364;32;20608;-61
2021/07/01 02:40:12;;;;;;;28.37;11.27;;;13.60;99.90;;;;;;4380222;32;20167;-63
2021/07/01 02:42:39;;;;;;;22.07;10.87;;;13.50;99.90;;;;;;4387116;32;20144;-61
2021/07/01 02:45:07;;;;;;;22.33;11.43;;;13.60;99.90;;;;;;4386033;32;20148;-63
2021/07/01 02:47:35;;;;;;;21.23;10.13;;;13.60;99.90;;;;;;4384876;32;20149;-63
2021/07/01 02:50:04;;;;;;;23.57;10.53;;;13.60;99.90;;;;;;4385216;32;20163;-63
2021/07/01 02:52:31;;;;;;;28.43;11.63;;;13.60;99.90;;;;;;4381659;32;20163;-64
2021/07/01 02:55:00;;;;;;;29.90;11.70;;;13.60;99.90;;;;;;4387137;32;20151;-62
2021/07/01 02:57:33;;;;;;;23.70;12.40;;;13.70;99.90;;;;;;4387458;32;20217;-62
2021/07/01 03:00:01;;;;;;;35.03;11.83;;;13.80;99.90;;;;;;4377276;32;20274;-62
2021/07/01 03:02:31;;;;;;;25.40;10.87;;;13.70;99.90;;;;;;4387513;32;20152;-63
2021/07/01 03:04:58;;;;;;;22.70;9.53;;;13.70;99.90;;;;;;4389120;32;20154;-63
2021/07/01 03:07:26;;;;;;;24.83;10.97;;;13.70;99.90;;;;;;4387463;32;20174;-63
2021/07/01 03:09:53;;;;;;;29.03;11.43;;;13.70;99.90;;;;;;4387863;32;20148;-62
2021/07/01 03:12:20;;;;;;;28.37;10.23;;;13.70;99.90;;;;;;4383133;32;20147;-62
2021/07/01 03:14:47;;;;;;;20.73;9.67;;;13.70;99.90;;;;;;4385468;32;20163;-62
2021/07/01 03:17:13;;;;;;;22.53;10.30;;;13.70;99.90;;;;;;4383947;32;20170;-63
2021/07/01 03:19:40;;;;;;;20.27;10.03;;;13.70;99.90;;;;;;4381955;32;20624;-62
2021/07/01 03:22:08;;;;;;;25.43;10.10;;;13.80;99.90;;;;;;4387618;32;20227;-63
2021/07/01 03:24:36;;;;;;;32.43;11.47;;;13.80;99.90;;;;;;4394044;32;20172;-63
2021/07/01 03:27:04;;;;;;;23.77;11.50;;;13.90;99.90;;;;;;4390189;32;20166;-64
2021/07/01 03:29:31;;;;;;;18.93;10.30;;;13.90;99.90;;;;;;4391414;32;20144;-61
2021/07/01 03:31:58;;;;;;;22.77;10.93;;;13.80;99.90;;;;;;4380318;32;20163;-63
2021/07/01 03:34:25;;;;;;;28.40;12.50;;;13.90;99.90;;;;;;4383214;32;20175;-63
2021/07/01 03:36:51;;;;;;;29.33;13.13;;;13.90;99.90;;;;;;4381784;32;20149;-62
2021/07/01 03:39:18;;;;;;;23.53;11.07;;;13.90;99.90;;;;;;4391561;32;20181;-63
2021/07/01 03:41:47;;;;;;;28.50;11.47;;;13.90;99.90;;;;;;4388545;32;20202;-63
2021/07/01 03:44:15;;;;;;;28.37;11.90;;;13.90;99.90;;;;;;4381143;32;20167;-62
2021/07/01 03:46:42;;;;;;;27.17;12.87;;;13.90;99.90;;;;;;4377375;32;20219;-62
2021/07/01 03:49:09;;;;;;;22.73;11.70;;;13.90;99.90;;;;;;4388644;32;20218;-62
2021/07/01 03:51:35;;;;;;;23.60;11.27;;;13.90;99.90;;;;;;4381368;32;20175;-62
2021/07/01 03:54:04;;;;;;;25.70;12.73;;;13.90;99.90;;;;;;4392544;32;20156;-61
2021/07/01 03:56:41;;;;;;;25.63;11.63;;;14.00;99.90;;;;;;4385526;32;20195;-62
2021/07/01 03:59:10;;;;;;;37.67;12.97;;;14.00;99.90;;;;;;4384205;32;20155;-62
2021/07/01 04:01:36;;;;;;;30.70;11.90;;;14.00;99.90;;;;;;4390077;32;20170;-62
2021/07/01 04:04:04;;;;;;;23.37;12.43;;;14.00;99.90;;;;;;4377817;32;20232;-62
2021/07/01 04:06:31;;;;;;;30.40;12.73;;;13.90;99.90;;;;;;4388599;32;20595;-61
2021/07/01 04:08:58;;;;;;;32.30;13.33;;;13.90;99.90;;;;;;4382178;32;20709;-62
2021/07/01 04:11:27;;;;;;;24.93;12.50;;;13.90;99.90;;;;;;4390211;32;20540;-62
2021/07/01 04:13:55;;;;;;;22.00;11.40;;;14.00;99.90;;;;;;4381572;32;20145;-62
2021/07/01 04:16:23;;;;;;;24.33;11.47;;;14.00;99.90;;;;;;4383497;32;20151;-63
2021/07/01 04:18:50;;;;;;;24.77;12.73;;;13.90;99.90;;;;;;4372672;32;20144;-63
2021/07/01 04:21:17;;;;;;;22.20;11.87;;;13.90;99.90;;;;;;4385677;32;20141;-62
2021/07/01 04:23:44;;;;;;;26.90;12.07;;;14.00;99.90;;;;;;4391344;32;20157;-62
2021/07/01 04:26:11;;;;;;;22.53;10.30;;;13.90;99.90;;;;;;4392666;32;20174;-61
2021/07/01 04:28:39;;;;;;;18.47;11.70;;;13.90;99.90;;;;;;4387476;32;20171;-61
2021/07/01 04:31:05;;;;;;;30.17;12.57;;;14.00;99.90;;;;;;4388906;32;20606;-63
2021/07/01 04:33:37;;;;;;;30.50;10.83;;;13.90;99.90;;;;;;4379349;32;20195;-61
2021/07/01 04:36:04;;;;;;;21.97;11.13;;;13.80;99.90;;;;;;4375931;32;20487;-61
2021/07/01 04:38:32;;;;;;;33.27;12.00;;;13.80;99.90;;;;;;4387718;32;20191;-61
2021/07/01 04:40:59;;;;;;;27.97;11.33;;;13.90;99.90;;;;;;4388670;32;20144;-61
2021/07/01 04:43:28;;;;;;;23.53;12.30;;;13.90;99.90;;;;;;4385928;32;20229;-63
2021/07/01 04:45:55;;;;;;;22.03;11.03;;;13.90;99.90;;;;;;4376293;32;20598;-64
2021/07/01 04:48:21;;;;;;;22.97;10.40;;;13.90;99.90;;;;;;4382865;32;20145;-64
2021/07/01 04:50:49;;;;;;;21.90;8.80;;;13.90;99.90;;;;;;4385889;32;20148;-64
2021/07/01 04:53:19;;;;;;;26.80;10.57;;;13.90;99.90;;;;;;4380645;32;20515;-64
2021/07/01 04:55:46;;;;;;;26.60;11.77;;;13.90;99.90;;;;;;4377570;32;20692;-64
2021/07/01 04:58:13;;;;;;;19.60;10.03;;;13.80;99.90;;;;;;4377782;32;20303;-62
2021/07/01 05:00:50;;;;;;;;;;;;;;;;;;;;;
2021/07/01 05:03:24;;;;;;;21.93;8.90;;;13.90;99.90;;;;;;4373494;32;20252;-62
2021/07/01 05:05:54;;;;;;;22.37;8.60;;;13.90;99.90;;;;;;4373631;32;20231;-63
2021/07/01 05:08:24;;;;;;;19.20;8.63;;;13.90;99.90;;;;;;4376272;32;20595;-63
2021/07/01 05:10:51;;;;;;;17.43;8.87;;;14.00;99.90;;;;;;4378130;32;20171;-63
2021/07/01 05:13:19;;;;;;;18.17;8.40;;;14.00;99.90;;;;;;4380817;32;20153;-62
2021/07/01 05:15:46;;;;;;;14.20;8.50;;;14.00;99.90;;;;;;4376891;32;20187;-62
2021/07/01 05:18:15;;;;;;;20.83;8.80;;;14.00;99.90;;;;;;4384070;32;20235;-64
2021/07/01 05:20:43;;;;;;;20.50;9.60;;;14.00;99.90;;;;;;4383098;32;20152;-62
2021/07/01 05:23:11;;;;;;;23.90;10.47;;;14.00;99.90;;;;;;4376249;32;20492;-63
2021/07/01 05:25:38;;;;;;;28.40;10.90;;;14.00;99.90;;;;;;4381165;32;20530;-63
2021/07/01 05:28:10;;;;;;;21.50;9.67;;;13.90;99.90;;;;;;4382083;32;20171;-62
2021/07/01 05:30:37;;;;;;;18.80;9.93;;;13.90;99.90;;;;;;4380948;32;20208;-63
2021/07/01 05:33:05;;;;;;;17.53;9.23;;;13.90;99.90;;;;;;4381397;32;20227;-63
2021/07/01 05:35:32;;;;;;;23.47;10.47;;;14.00;99.90;;;;;;4377862;32;20178;-62
2021/07/01 05:37:59;;;;;;;20.73;9.77;;;14.00;99.90;;;;;;4379128;32;20227;-63
2021/07/01 05:40:27;;;;;;;22.87;11.47;;;14.10;99.90;;;;;;4380042;32;20147;-63
2021/07/01 05:42:54;;;;;;;22.67;11.07;;;14.00;99.90;;;;;;4385118;32;20579;-61
2021/07/01 05:45:21;;;;;;;21.57;11.27;;;14.10;99.90;;;;;;4381780;32;20199;-63
2021/07/01 05:47:51;;;;;;;23.10;11.20;;;14.10;99.90;;;;;;4381996;32;20160;-61
2021/07/01 05:50:20;;;;;;;22.20;10.77;;;14.20;99.90;;;;;;4377163;32;20148;-61
2021/07/01 05:52:50;;;;;;;20.07;11.17;;;14.20;99.90;;;;;;4374982;32;20156;-62
2021/07/01 05:55:17;;;;;;;22.53;11.33;;;14.30;99.90;;;;;;4377117;32;20152;-63
2021/07/01 05:57:48;;;;;;;30.80;13.23;;;14.30;99.90;;;;;;4377347;32;22164;-62
2021/07/01 06:00:17;;;;;;;24.20;12.07;;;14.30;99.90;;;;;;4378411;32;20159;-62
2021/07/01 06:02:46;;;;;;;27.27;14.03;;;14.30;99.90;;;;;;4380648;32;20172;-64
2021/07/01 06:05:13;;;;;;;34.83;12.43;;;14.30;99.90;;;;;;4379321;32;20598;-63
2021/07/01 06:07:46;;;;;;;25.47;13.10;;;14.30;99.90;;;;;;4377206;32;20617;-62
2021/07/01 06:10:17;;;;;;;28.87;12.30;;;14.30;99.90;;;;;;4375605;32;20145;-63
2021/07/01 06:12:44;;;;;;;25.00;12.10;;;14.30;99.90;;;;;;4378713;32;20160;-63
2021/07/01 06:15:13;;;;;;;28.40;13.13;;;14.30;99.90;;;;;;4381020;32;20198;-62
2021/07/01 06:17:43;;;;;;;31.97;13.50;;;14.30;99.90;;;;;;4379472;32;20247;-63
2021/07/01 06:20:11;;;;;;;23.23;11.90;;;14.30;99.90;;;;;;4380861;32;20208;-62
2021/07/01 06:22:40;;;;;;;22.23;12.73;;;14.30;99.90;;;;;;4381634;32;20183;-63
2021/07/01 06:25:08;;;;;;;23.17;12.90;;;14.30;99.90;;;;;;4378787;32;20233;-63
2021/07/01 06:27:38;;;;;;;29.33;13.33;;;14.40;99.90;;;;;;4379479;32;20168;-63
2021/07/01 06:30:14;;;;;;;23.60;12.53;;;14.40;99.90;;;;;;4377087;32;20280;-64
2021/07/01 06:32:44;;;;;;;29.57;13.07;;;14.40;99.90;;;;;;4375951;32;20189;-63
2021/07/01 06:35:12;;;;;;;25.40;13.30;;;14.40;99.90;;;;;;4375934;32;20198;-62
2021/07/01 06:37:41;;;;;;;27.70;13.73;;;14.40;99.90;;;;;;4381041;32;20148;-63
2021/07/01 06:40:10;;;;;;;25.03;11.90;;;14.40;99.90;;;;;;4381852;32;20140;-63
2021/07/01 06:42:45;;;;;;;32.43;12.33;;;14.50;99.90;;;;;;4375919;32;20153;-61
2021/07/01 06:45:14;;;;;;;23.13;12.20;;;14.60;99.90;;;;;;4369954;32;20213;-63
2021/07/01 06:47:46;;;;;;;24.10;12.13;;;14.60;99.90;;;;;;4378762;32;20196;-63
2021/07/01 06:50:14;;;;;;;21.53;11.47;;;14.60;99.90;;;;;;4380024;32;20143;-63
2021/07/01 06:52:44;;;;;;;25.83;12.67;;;14.80;99.90;;;;;;4375196;32;20210;-63
2021/07/01 06:55:13;;;;;;;25.37;12.20;;;14.80;99.90;;;;;;4374565;32;20183;-64
2021/07/01 06:57:41;;;;;;;24.57;10.83;;;14.80;99.90;;;;;;4381208;32;20322;-64
2021/07/01 07:00:10;;;;;;;33.07;12.13;;;14.90;99.90;;;;;;4392640;32;20564;-62
2021/07/01 07:02:38;;;;;;;35.97;13.60;;;14.90;99.90;;;;;;4378076;32;20190;-62
2021/07/01 07:05:07;;;;;;;35.77;13.33;;;14.90;99.90;;;;;;4377604;32;20190;-62
2021/07/01 07:07:34;;;;;;;39.50;14.93;;;14.80;99.90;;;;;;4379387;32;20160;-64
2021/07/01 07:10:05;;;;;;;30.10;13.87;;;14.70;99.90;;;;;;4378230;32;20519;-64
2021/07/01 07:12:38;;;;;;;31.00;14.63;;;14.70;99.90;;;;;;4378355;32;20172;-63
2021/07/01 07:15:07;;;;;;;29.40;13.10;;;14.60;99.90;;;;;;4378989;32;20214;-63
2021/07/01 07:17:37;;;;;;;41.23;14.50;;;14.70;99.90;;;;;;4382263;32;20178;-63
2021/07/01 07:20:07;;;;;;;32.43;13.73;;;14.90;99.90;;;;;;4381050;32;20160;-62
2021/07/01 07:22:37;;;;;;;33.10;13.00;;;15.10;99.90;;;;;;4386045;32;20179;-62
2021/07/01 07:25:07;;;;;;;29.13;13.20;;;15.10;99.90;;;;;;4383851;32;20199;-62
2021/07/01 07:27:34;;;;;;;26.93;12.50;;;15.30;99.90;;;;;;4381919;32;20200;-62
2021/07/01 07:30:01;;;;;;;27.73;14.03;;;15.30;99.90;;;;;;4386039;32;20184;-62
2021/07/01 07:32:30;;;;;;;32.30;13.20;;;15.50;99.90;;;;;;4387244;32;20581;-62
2021/07/01 07:34:57;;;;;;;40.33;13.97;;;15.60;99.90;;;;;;4383570;32;20211;-61
2021/07/01 07:37:25;;;;;;;42.60;13.97;;;15.40;99.90;;;;;;4389527;32;20472;-63
2021/07/01 07:39:52;;;;;;;32.53;13.07;;;15.40;99.90;;;;;;4388599;32;20156;-63
2021/07/01 07:42:19;;;;;;;32.07;13.37;;;15.40;99.90;;;;;;4381102;32;20148;-61
2021/07/01 07:44:46;;;;;;;31.70;12.10;;;15.40;99.90;;;;;;4386462;32;20157;-61
2021/07/01 07:47:15;;;;;;;38.03;14.27;;;15.50;99.90;;;;;;4385186;32;20156;-61
2021/07/01 07:49:43;;;;;;;27.40;12.40;;;15.40;99.90;;;;;;4380018;32;20185;-62
2021/07/01 07:52:12;;;;;;;26.20;13.07;;;15.50;99.90;;;;;;4379933;32;20627;-63
2021/07/01 07:54:47;;;;;;;33.30;14.50;;;15.60;99.90;;;;;;4380233;32;20175;-62
2021/07/01 07:57:15;;;;;;;42.83;15.60;;;15.50;99.90;;;;;;4384143;32;20189;-63
2021/07/01 07:59:44;;;;;;;34.33;13.97;;;15.50;99.90;;;;;;4382286;32;20213;-60
2021/07/01 08:02:31;;;;;;;40.50;14.57;;;15.50;99.90;;;;;;4381420;32;20621;-62
2021/07/01 08:05:00;;;;;;;36.47;12.80;;;15.60;99.90;;;;;;4382938;32;20148;-62
2021/07/01 08:07:28;;;;;;;37.47;14.07;;;15.50;99.90;;;;;;4381918;32;20176;-63
2021/07/01 08:10:00;;;;;;;40.50;15.47;;;15.60;99.90;;;;;;4382831;32;20163;-63
2021/07/01 08:12:29;;;;;;;29.53;12.53;;;15.70;99.90;;;;;;4380809;32;20157;-63
2021/07/01 08:15:00;;;;;;;36.30;14.67;;;15.70;99.90;;;;;;4383449;32;20237;-62
2021/07/01 08:17:28;;;;;;;37.57;14.50;;;15.50;99.90;;;;;;4379460;32;20148;-62
2021/07/01 08:19:59;;;;;;;31.90;12.67;;;15.50;99.90;;;;;;4384032;32;20182;-62
2021/07/01 08:22:25;;;;;;;32.40;13.50;;;15.60;99.90;;;;;;4379934;32;20190;-62
2021/07/01 08:24:52;;;;;;;33.87;13.47;;;15.70;99.90;;;;;;4380978;32;20155;-64
2021/07/01 08:27:23;;;;;;;24.67;12.13;;;15.70;99.90;;;;;;4382262;32;20194;-59
2021/07/01 08:29:50;;;;;;;32.37;13.27;;;15.60;99.90;;;;;;4382348;32;20152;-61
2021/07/01 08:32:18;;;;;;;37.23;11.90;;;15.50;99.90;;;;;;4382777;32;20609;-60
2021/07/01 08:34:46;;;;;;;33.47;12.50;;;15.60;99.90;;;;;;4378710;32;20576;-61
2021/07/01 08:37:13;;;;;;;27.97;11.50;;;15.50;99.90;;;;;;4382764;32;20206;-61
2021/07/01 08:39:40;;;;;;;35.50;11.90;;;15.60;99.90;;;;;;4382839;32;20222;-62
2021/07/01 08:42:13;;;;;;;35.53;12.10;;;15.80;99.90;;;;;;4380505;32;20161;-60
2021/07/01 08:44:45;;;;;;;24.80;10.20;;;16.10;99.90;;;;;;4381261;32;20164;-62
2021/07/01 08:47:15;;;;;;;24.63;9.43;;;16.10;99.90;;;;;;4383135;32;20151;-62
2021/07/01 08:49:53;;;;;;;21.57;10.47;;;16.10;99.90;;;;;;4383027;32;20149;-63
2021/07/01 08:52:24;;;;;;;25.57;9.60;;;16.30;99.90;;;;;;4381751;32;20159;-61
2021/07/01 08:54:57;;;;;;;23.80;10.10;;;16.40;99.90;;;;;;4383390;32;20219;-62
2021/07/01 08:57:29;;;;;;;24.33;10.20;;;16.30;99.90;;;;;;4380214;32;20662;-62
2021/07/01 09:00:11;;;;;;;26.87;10.10;;;16.20;99.90;;;;;;4382442;32;20172;-63
2021/07/01 09:02:40;;;;;;;22.27;10.00;;;16.10;99.90;;;;;;4380843;32;20576;-60
2021/07/01 09:05:12;;;;;;;27.00;10.43;;;16.10;99.90;;;;;;4380854;32;20139;-62
2021/07/01 09:07:40;;;;;;;21.70;9.20;;;16.30;99.90;;;;;;4382052;32;20167;-63
2021/07/01 09:10:12;;;;;;;26.33;10.43;;;16.40;99.90;;;;;;4377799;32;20210;-62
2021/07/01 09:12:44;;;;;;;18.77;8.27;;;16.30;99.90;;;;;;4382349;32;20149;-61
2021/07/01 09:15:13;;;;;;;22.10;9.37;;;16.50;99.90;;;;;;4382729;32;20284;-62
2021/07/01 09:17:47;;;;;;;20.73;8.37;;;16.60;99.90;;;;;;4383566;32;20148;-62
2021/07/01 09:20:18;;;;;;;22.60;8.67;;;16.50;99.90;;;;;;4379576;32;20168;-62
2021/07/01 09:22:46;;;;;;;20.53;9.27;;;16.50;99.90;;;;;;4380530;32;20149;-62
2021/07/01 09:25:14;;;;;;;18.80;8.57;;;16.60;99.90;;;;;;4379625;32;20497;-61
2021/07/01 09:27:43;;;;;;;24.10;10.00;;;16.70;99.90;;;;;;4381833;32;20175;-61
2021/07/01 09:30:13;;;;;;;22.27;9.43;;;16.90;99.90;;;;;;4381443;32;20148;-60
2021/07/01 09:32:42;;;;;;;20.93;8.23;;;17.00;99.90;;;;;;4382710;32;20476;-61
2021/07/01 09:35:11;;;;;;;18.80;7.97;;;17.10;99.90;;;;;;4381356;32;20156;-61
2021/07/01 09:37:42;;;;;;;17.27;8.73;;;17.10;99.90;;;;;;4380039;32;20655;-61
2021/07/01 09:40:11;;;;;;;18.40;8.93;;;17.40;99.90;;;;;;4379667;32;20176;-60
2021/07/01 09:42:39;;;;;;;24.30;9.23;;;17.30;99.90;;;;;;4382895;32;20588;-61
2021/07/01 09:45:10;;;;;;;21.13;8.27;;;17.30;99.90;;;;;;4380013;32;20475;-62
2021/07/01 09:47:44;;;;;;;20.40;9.10;;;17.30;99.90;;;;;;4382642;32;20594;-63
2021/07/01 09:50:14;;;;;;;19.07;7.77;;;17.10;99.90;;;;;;4378691;32;20610;-61
2021/07/01 09:52:42;;;;;;;17.37;7.27;;;17.10;99.90;;;;;;4375579;32;20224;-61
2021/07/01 09:55:11;;;;;;;16.93;7.43;;;16.90;99.90;;;;;;4378290;32;20156;-61
2021/07/01 09:57:39;;;;;;;15.77;7.33;;;17.00;99.90;;;;;;4376789;32;20176;-62
2021/07/01 10:00:09;;;;;;;18.47;7.83;;;17.00;99.90;;;;;;4376944;32;20168;-62
2021/07/01 10:02:36;;;;;;;20.73;7.43;;;17.20;99.90;;;;;;4386712;32;20195;-62
2021/07/01 10:05:08;;;;;;;12.60;7.37;;;17.00;99.90;;;;;;4385268;32;20166;-62
2021/07/01 10:07:48;;;;;;;20.40;7.83;;;17.10;99.90;;;;;;4379796;32;20173;-62
2021/07/01 10:10:16;;;;;;;18.93;7.43;;;17.10;99.90;;;;;;4377589;32;20148;-61
2021/07/01 10:12:51;;;;;;;14.57;7.60;;;17.30;99.90;;;;;;4376862;32;20157;-62
2021/07/01 10:15:30;;;;;;;19.27;7.47;;;17.40;99.90;;;;;;4378159;32;20221;-62
2021/07/01 10:18:09;;;;;;;18.33;7.70;;;17.40;99.90;;;;;;4376352;32;20215;-62
2021/07/01 10:20:39;;;;;;;16.93;7.83;;;17.30;99.90;;;;;;4377817;32;20242;-63
2021/07/01 10:23:18;;;;;;;15.90;7.63;;;17.30;99.90;;;;;;4379899;32;20589;-63
2021/07/01 10:25:46;;;;;;;23.40;8.13;;;17.30;99.90;;;;;;4380847;32;20178;-63
2021/07/01 10:28:16;;;;;;;17.90;8.90;;;17.20;99.90;;;;;;4375371;32;20249;-62
2021/07/01 10:30:44;;;;;;;19.47;9.10;;;17.10;99.90;;;;;;4380720;32;20187;-63
2021/07/01 10:33:26;;;;;;;21.63;8.30;;;17.20;99.90;;;;;;4382360;32;20156;-62
2021/07/01 10:35:58;;;;;;;24.90;8.97;;;17.50;99.90;;;;;;4378607;32;20249;-63
2021/07/01 10:38:25;;;;;;;13.93;6.40;;;17.60;99.90;;;;;;4382656;32;20174;-62
2021/07/01 10:40:54;;;;;;;19.73;7.73;;;17.50;99.90;;;;;;4381731;32;20195;-62
2021/07/01 10:43:38;;;;;;;23.03;8.10;;;17.70;99.90;;;;;;4379198;32;20198;-62
2021/07/01 10:46:05;;;;;;;17.87;7.43;;;17.60;99.90;;;;;;4383631;32;20159;-62
2021/07/01 10:48:32;;;;;;;17.50;7.47;;;17.60;99.90;;;;;;4376594;32;20223;-63
2021/07/01 10:51:09;;;;;;;20.73;7.57;;;17.70;99.90;;;;;;4382688;32;20213;-63
2021/07/01 10:53:38;;;;;;;22.90;8.57;;;17.60;99.90;;;;;;4381947;32;20179;-63
2021/07/01 10:56:08;;;;;;;18.47;7.83;;;17.70;99.90;;;;;;4383221;32;20209;-63
2021/07/01 10:58:37;;;;;;;25.03;8.57;;;17.90;99.90;;;;;;4387850;32;20148;-63
2021/07/01 11:01:05;;;;;;;13.03;6.80;;;17.90;99.90;;;;;;4380714;32;20184;-63
2021/07/01 11:03:34;;;;;;;21.77;8.40;;;18.20;99.90;;;;;;4379363;32;20168;-63
2021/07/01 11:06:03;;;;;;;20.43;7.40;;;18.20;99.90;;;;;;4381759;32;20164;-63
2021/07/01 11:08:33;;;;;;;20.87;8.20;;;18.10;99.90;;;;;;4384971;32;20168;-63
2021/07/01 11:11:03;;;;;;;20.30;7.70;;;18.30;99.90;;;;;;4379331;32;20234;-64
2021/07/01 11:13:32;;;;;;;21.60;7.93;;;18.40;99.90;;;;;;4382818;32;20176;-63
2021/07/01 11:16:05;;;;;;;25.53;8.17;;;18.60;99.90;;;;;;4383042;32;20153;-63
2021/07/01 11:18:40;;;;;;;23.00;7.53;;;18.50;99.90;;;;;;4379734;32;20179;-64
2021/07/01 11:21:10;;;;;;;20.33;8.03;;;18.60;99.90;;;;;;4380683;32;20195;-63
2021/07/01 11:23:38;;;;;;;19.90;7.27;;;18.70;99.90;;;;;;4383227;32;20214;-61
2021/07/01 11:26:23;;;;;;;18.53;7.70;;;18.80;99.90;;;;;;4382106;32;20148;-62
2021/07/01 11:28:50;;;;;;;22.10;8.33;;;19.00;99.90;;;;;;4385262;32;20453;-60
2021/07/01 11:31:17;;;;;;;21.87;7.97;;;19.10;99.90;;;;;;4377181;32;20223;-63
2021/07/01 11:33:50;;;;;;;20.30;8.03;;;19.10;99.90;;;;;;4371885;32;20239;-64
2021/07/01 11:36:21;;;;;;;24.00;7.87;;;19.00;99.90;;;;;;4376573;32;20234;-61
2021/07/01 11:38:49;;;;;;;16.30;7.80;;;19.10;99.90;;;;;;4381072;32;20152;-63
2021/07/01 11:41:17;;;;;;;15.93;7.27;;;19.00;99.90;;;;;;4383678;32;20153;-62
2021/07/01 11:43:45;;;;;;;24.83;8.27;;;19.00;99.90;;;;;;4383117;32;20675;-62
2021/07/01 11:46:15;;;;;;;20.43;7.70;;;18.90;99.90;;;;;;4383999;32;20144;-62
2021/07/01 11:48:52;;;;;;;31.13;8.50;;;18.80;99.90;;;;;;4379811;32;20140;-62
2021/07/01 11:51:25;;;;;;;21.23;8.10;;;18.60;99.90;;;;;;4382494;32;20151;-62
2021/07/01 11:53:53;;;;;;;21.63;8.07;;;18.70;99.90;;;;;;4378630;32;20304;-64
2021/07/01 11:56:26;;;;;;;21.90;8.90;;;19.00;99.90;;;;;;4381546;32;20219;-62
2021/07/01 11:58:53;;;;;;;22.90;8.17;;;19.20;99.90;;;;;;4380068;32;20186;-62
2021/07/01 12:01:21;;;;;;;25.57;8.93;;;19.10;99.90;;;;;;4377368;32;20694;-63
2021/07/01 12:03:52;;;;;;;22.50;9.10;;;18.90;99.90;;;;;;4379246;32;20215;-62
2021/07/01 12:06:32;;;;;;;22.73;8.73;;;18.80;99.90;;;;;;4380424;32;21034;-63
2021/07/01 12:09:03;;;;;;;17.60;8.17;;;18.60;99.90;;;;;;4380565;32;20206;-63
2021/07/01 12:11:32;;;;;;;21.23;8.43;;;18.60;99.90;;;;;;4380784;32;20144;-64
2021/07/01 12:14:28;;;;;;;26.60;8.47;;;18.50;99.90;;;;;;4380485;32;20200;-62
2021/07/01 12:17:11;;;;;;;23.17;8.40;;;18.30;99.90;;;;;;4381434;32;20218;-62
2021/07/01 12:20:07;;;;;;;33.53;9.83;;;18.20;99.90;;;;;;4383116;32;20258;-61
2021/07/01 12:22:51;;;;;;;30.60;11.87;;;18.30;99.90;;;;;;4379846;32;20180;-61
2021/07/01 12:25:44;;;;;;;23.13;9.00;;;18.40;99.90;;;;;;4379263;32;20152;-63
2021/07/01 12:28:17;;;;;;;22.73;9.00;;;18.50;99.90;;;;;;4384103;32;20156;-63
2021/07/01 12:31:03;;;;;;;23.27;9.33;;;18.60;99.90;;;;;;4384500;32;20149;-62
2021/07/01 12:33:42;;;;;;;31.20;9.83;;;18.60;99.90;;;;;;4381637;32;20157;-62
2021/07/01 12:36:21;;;;;;;30.77;9.43;;;18.50;99.90;;;;;;4378533;32;20191;-62
2021/07/01 12:39:16;;;;;;;26.97;9.30;;;18.40;99.90;;;;;;4383614;32;20174;-62
2021/07/01 12:41:46;;;;;;;23.97;8.80;;;18.50;99.90;;;;;;4383246;32;20144;-61
2021/07/01 12:44:30;;;;;;;26.53;9.43;;;18.50;99.90;;;;;;4380052;32;20178;-63